Terminal Aerodrome Forecast
Issued by NWS Missoula, MT

Home | Current Version | Previous Version | Text Only | Print | Product List | Glossary On
Versions: 1 2 3 4 5 6 7 8 9 10 11 12 13 14 15 16 17
264
FTUS45 KMSO 241720
TAFBTM
TAF
KBTM 241720Z 2418/2518 16008KT P6SM SKC
     FM242100 19006KT P6SM SKC
     FM250300 VRB03KT P6SM SKC=

USA.gov is the U.S. government's official web portal to all federal, state and local government web resources and services.